createdAt,value
2022-08-11T00:01:59.127Z,44.26
2022-08-11T00:04:27.787Z,44.18
2022-08-11T00:06:55.945Z,44.47
2022-08-11T00:09:33.012Z,44.20
2022-08-11T00:12:13.843Z,44.29
2022-08-11T00:14:41.983Z,44.48
2022-08-11T00:17:11.402Z,43.90
2022-08-11T00:20:11.884Z,44.34
2022-08-11T00:22:30.904Z,43.96
2022-08-11T00:25:02.667Z,44.05
2022-08-11T00:27:34.940Z,44.24
2022-08-11T00:30:03.329Z,43.96
2022-08-11T00:32:31.423Z,43.96
2022-08-11T00:35:54.254Z,43.92
2022-08-11T00:37:49.680Z,43.71
2022-08-11T00:40:24.311Z,44.06
2022-08-11T00:42:59.918Z,43.71
2022-08-11T00:45:29.088Z,43.83
2022-08-11T00:48:04.136Z,43.84
2022-08-11T00:50:39.565Z,43.87
2022-08-11T00:53:33.395Z,43.62
2022-08-11T00:56:19.423Z,43.88
2022-08-11T00:59:36.078Z,43.98
2022-08-11T01:02:18.649Z,43.72
2022-08-11T01:05:07.968Z,43.98
2022-08-11T01:12:05.409Z,43.65
2022-08-11T01:15:21.513Z,43.82
2022-08-11T01:18:18.892Z,43.57
2022-08-11T01:21:26.440Z,43.66
2022-08-11T01:24:32.836Z,43.60
2022-08-11T01:27:19.210Z,43.51
2022-08-11T01:30:05.005Z,43.61
2022-08-11T01:33:10.109Z,43.26
2022-08-11T01:36:23.284Z,43.33
2022-08-11T01:39:18.346Z,43.35
2022-08-11T01:42:13.658Z,43.32
2022-08-11T01:45:07.021Z,43.22
2022-08-11T01:47:54.788Z,43.03
2022-08-11T01:50:34.773Z,43.14
2022-08-11T01:53:06.337Z,43.37
2022-08-11T01:55:41.664Z,43.34
2022-08-11T01:58:13.507Z,43.15
2022-08-11T02:00:50.132Z,43.17
2022-08-11T02:03:21.664Z,43.02
2022-08-11T02:06:01.355Z,43.02
2022-08-11T02:08:44.868Z,42.97
2022-08-11T02:11:34.452Z,43.25
2022-08-11T02:14:13.032Z,42.74
2022-08-11T02:17:00.418Z,43.28
2022-08-11T02:19:52.911Z,42.84
2022-08-11T02:22:58.357Z,42.90
2022-08-11T02:25:30.711Z,42.90
2022-08-11T02:28:03.656Z,42.88
2022-08-11T02:30:34.239Z,43.09
2022-08-11T02:33:23.605Z,43.06
2022-08-11T02:35:58.731Z,43.00
2022-08-11T02:38:29.457Z,42.66
2022-08-11T02:41:02.491Z,42.92
2022-08-11T02:43:40.947Z,42.77
2022-08-11T02:46:21.557Z,42.85
2022-08-11T02:49:12.327Z,42.43
2022-08-11T02:51:43.832Z,42.63
2022-08-11T02:54:16.749Z,42.87
2022-08-11T02:56:52.267Z,42.92
2022-08-11T02:59:43.903Z,42.63
2022-08-11T03:02:15.800Z,42.67
2022-08-11T03:04:56.691Z,42.44
2022-08-11T03:07:29.038Z,43.10
2022-08-11T03:10:01.655Z,42.41
2022-08-11T03:12:53.569Z,42.65
2022-08-11T03:15:44.594Z,42.67
2022-08-11T03:18:19.275Z,42.65
2022-08-11T03:20:50.401Z,42.61
2022-08-11T03:23:24.394Z,42.59
2022-08-11T03:25:55.660Z,42.57
2022-08-11T03:28:29.623Z,42.63
2022-08-11T03:31:08.319Z,42.36
2022-08-11T03:34:00.520Z,42.50
2022-08-11T03:37:17.515Z,42.44
2022-08-11T03:39:56.575Z,42.45
2022-08-11T03:42:28.193Z,42.44
2022-08-11T03:45:08.497Z,42.50
2022-08-11T03:47:54.941Z,42.51
2022-08-11T03:51:02.973Z,42.30
2022-08-11T03:53:51.412Z,42.52
2022-08-11T03:56:51.761Z,42.50
2022-08-11T03:59:51.201Z,42.51
2022-08-11T04:02:35.794Z,42.71
2022-08-11T04:05:51.619Z,42.07
2022-08-11T04:08:51.355Z,42.13
2022-08-11T04:11:33.335Z,42.25
2022-08-11T04:14:52.993Z,42.05
2022-08-11T04:17:54.638Z,41.95
2022-08-11T04:20:31.155Z,41.99
2022-08-11T04:24:35.529Z,41.99
2022-08-11T04:26:34.351Z,41.92
2022-08-11T04:29:09.501Z,41.81
2022-08-11T04:31:51.199Z,41.99
2022-08-11T04:34:43.205Z,41.80
2022-08-11T04:37:34.407Z,42.28
2022-08-11T04:40:46.340Z,41.98
2022-08-11T04:44:02.385Z,42.35
2022-08-11T04:47:11.804Z,42.47
2022-08-11T04:50:08.371Z,42.11
2022-08-11T04:53:20.570Z,42.19
2022-08-11T04:56:25.690Z,42.72
2022-08-11T04:59:41.641Z,42.67
2022-08-11T05:02:37.834Z,42.69
2022-08-11T05:05:34.846Z,42.76
2022-08-11T05:08:38.408Z,42.55
2022-08-11T05:11:21.534Z,42.54
2022-08-11T05:14:07.573Z,42.92
2022-08-11T05:17:00.494Z,42.60
2022-08-11T05:19:45.877Z,42.96
2022-08-11T05:22:31.658Z,42.78
2022-08-11T05:26:08.823Z,43.12
2022-08-11T05:28:28.381Z,43.29
2022-08-11T05:31:14.272Z,43.44
2022-08-11T05:34:05.960Z,43.56
2022-08-11T05:36:39.429Z,43.04
2022-08-11T05:39:36.594Z,43.14
2022-08-11T05:42:29.830Z,43.59
2022-08-11T05:45:18.209Z,43.52
2022-08-11T05:48:07.187Z,43.17
2022-08-11T05:50:53.940Z,43.49
2022-08-11T05:53:45.734Z,43.91
2022-08-11T05:56:20.695Z,44.00
2022-08-11T05:58:50.644Z,44.32
2022-08-11T06:01:23.304Z,43.48
2022-08-11T06:04:09.802Z,44.07
2022-08-11T06:06:45.294Z,43.59
2022-08-11T06:09:15.549Z,43.86
2022-08-11T06:11:45.137Z,43.96
2022-08-11T06:14:13.600Z,43.99
2022-08-11T06:16:42.090Z,44.22
2022-08-11T06:19:10.531Z,44.43
2022-08-11T06:21:44.772Z,44.47
2022-08-11T06:24:13.683Z,44.47
2022-08-11T06:27:01.527Z,44.73
2022-08-11T06:29:38.071Z,44.44
2022-08-11T06:32:15.659Z,44.92
2022-08-11T06:34:57.077Z,44.85
2022-08-11T06:37:31.215Z,44.66
2022-08-11T06:40:06.673Z,44.80
2022-08-11T06:42:48.202Z,44.78
2022-08-11T06:45:25.175Z,45.00
2022-08-11T06:47:53.506Z,44.79
2022-08-11T06:50:40.181Z,44.62
2022-08-11T06:53:12.181Z,44.96
2022-08-11T06:55:59.102Z,44.82
2022-08-11T06:58:47.174Z,44.71
2022-08-11T07:01:18.222Z,44.72
2022-08-11T07:03:47.873Z,44.85
2022-08-11T07:06:39.902Z,44.55
2022-08-11T07:09:52.160Z,44.44
2022-08-11T07:12:56.151Z,44.64
2022-08-11T07:16:10.820Z,45.09
2022-08-11T07:18:51.136Z,44.86
2022-08-11T07:22:01.476Z,44.77
2022-08-11T07:25:01.683Z,44.96
2022-08-11T07:27:55.574Z,44.91
2022-08-11T07:30:24.210Z,45.35
2022-08-11T07:32:53.212Z,45.28
2022-08-11T07:35:23.241Z,44.97
2022-08-11T07:38:01.713Z,45.22
2022-08-11T07:40:32.088Z,45.42
2022-08-11T07:43:00.859Z,45.67
2022-08-11T07:45:46.704Z,45.04
2022-08-11T07:48:32.525Z,45.33
2022-08-11T07:51:18.382Z,45.31
2022-08-11T07:53:58.712Z,45.51
2022-08-11T07:57:07.378Z,45.17
2022-08-11T08:00:00.209Z,45.16
2022-08-11T08:02:57.485Z,45.19
2022-08-11T08:05:42.777Z,45.30
2022-08-11T08:08:28.511Z,45.35
2022-08-11T08:11:14.260Z,45.30
2022-08-11T08:14:01.400Z,45.36
2022-08-11T08:16:47.941Z,45.10
2022-08-11T08:19:16.717Z,45.51
2022-08-11T08:21:45.341Z,45.30
2022-08-11T08:24:13.773Z,44.99
2022-08-11T08:27:00.212Z,45.45
2022-08-11T08:29:50.323Z,45.16
2022-08-11T08:32:18.744Z,45.36
2022-08-11T08:34:47.207Z,45.57
2022-08-11T08:37:46.282Z,45.63
2022-08-11T08:40:04.317Z,45.11
2022-08-11T08:42:33.347Z,45.47
2022-08-11T08:45:05.329Z,45.71
2022-08-11T08:47:42.052Z,45.70
2022-08-11T08:50:16.641Z,45.67
2022-08-11T08:52:49.233Z,45.74
2022-08-11T08:55:19.338Z,45.98
2022-08-11T08:57:50.184Z,45.83
2022-08-11T09:00:23.494Z,46.15
2022-08-11T09:02:51.930Z,46.04
2022-08-11T09:05:20.231Z,45.96
2022-08-11T09:07:48.681Z,46.42
2022-08-11T09:10:17.490Z,46.38
2022-08-11T09:12:45.604Z,46.66
2022-08-11T09:15:14.999Z,46.55
2022-08-11T09:17:49.997Z,46.15
2022-08-11T09:20:20.277Z,46.41
2022-08-11T09:26:14.067Z,46.40
2022-08-11T09:28:43.950Z,46.51
2022-08-11T09:31:13.507Z,46.42
2022-08-11T09:33:43.957Z,46.67
2022-08-11T09:36:31.309Z,46.14
2022-08-11T09:39:17.132Z,46.15
2022-08-11T09:42:00.565Z,46.21
2022-08-11T09:44:48.953Z,45.90
2022-08-11T09:47:24.473Z,46.11
2022-08-11T09:50:00.634Z,46.59
2022-08-11T09:52:30.930Z,46.17
2022-08-11T09:54:59.254Z,46.21
2022-08-11T09:57:44.696Z,46.49
2022-08-11T10:00:15.261Z,46.53
2022-08-11T10:02:44.718Z,47.03
2022-08-11T10:05:33.551Z,46.71
2022-08-11T10:08:01.712Z,46.64
2022-08-11T10:10:29.835Z,46.71
2022-08-11T10:13:01.699Z,46.63
2022-08-11T10:15:34.564Z,46.53
2022-08-11T10:18:22.689Z,46.57
2022-08-11T10:20:54.260Z,46.51
2022-08-11T10:24:01.188Z,46.70
2022-08-11T10:26:47.154Z,46.65
2022-08-11T10:29:35.905Z,46.67
2022-08-11T10:32:25.631Z,46.55
2022-08-11T10:35:00.504Z,46.67
2022-08-11T10:38:06.911Z,46.79
2022-08-11T10:40:25.346Z,46.80
2022-08-11T10:43:03.654Z,46.91
2022-08-11T10:45:49.145Z,47.13
2022-08-11T10:48:17.280Z,46.91
2022-08-11T10:51:04.794Z,47.00
2022-08-11T10:53:51.882Z,46.93
2022-08-11T10:56:37.138Z,46.91
2022-08-11T10:59:05.426Z,46.79
2022-08-11T11:01:35.295Z,46.86
2022-08-11T11:04:07.814Z,47.00
2022-08-11T11:06:44.758Z,47.05
2022-08-11T11:09:16.114Z,46.60
2022-08-11T11:12:03.757Z,47.14
2022-08-11T11:14:56.470Z,47.35
2022-08-11T11:17:46.772Z,47.31
2022-08-11T11:20:36.545Z,47.21
2022-08-11T11:23:09.692Z,47.29
2022-08-11T11:26:06.392Z,47.25
2022-08-11T11:28:59.211Z,47.33
2022-08-11T11:31:33.432Z,47.69
2022-08-11T11:34:13.232Z,47.73
2022-08-11T11:36:45.574Z,47.57
2022-08-11T11:39:13.866Z,47.54
2022-08-11T11:41:43.434Z,47.57
2022-08-11T11:44:12.863Z,47.74
2022-08-11T11:46:41.462Z,48.06
2022-08-11T11:49:16.616Z,47.65
2022-08-11T11:51:45.889Z,47.40
2022-08-11T11:54:18.235Z,47.63
2022-08-11T11:56:47.775Z,47.41
2022-08-11T11:59:33.395Z,47.62
2022-08-11T12:02:01.512Z,47.66
2022-08-11T12:04:42.959Z,47.80
2022-08-11T12:07:28.495Z,48.04
2022-08-11T12:09:56.738Z,47.71
2022-08-11T12:12:43.708Z,47.99
2022-08-11T12:15:11.997Z,47.56
2022-08-11T12:17:40.430Z,47.59
2022-08-11T12:20:31.946Z,47.82
2022-08-11T12:23:15.217Z,47.89
2022-08-11T12:26:25.317Z,47.78
2022-08-11T12:28:51.014Z,47.98
2022-08-11T12:31:22.191Z,47.94
2022-08-11T12:33:50.441Z,47.64
2022-08-11T12:36:18.538Z,47.75
2022-08-11T12:38:51.267Z,47.90
2022-08-11T12:41:37.985Z,47.56
2022-08-11T12:44:25.617Z,47.89
2022-08-11T12:46:53.859Z,48.22
2022-08-11T12:49:44.715Z,48.08
2022-08-11T12:52:17.586Z,48.02
2022-08-11T12:54:52.784Z,48.07
2022-08-11T12:57:42.821Z,48.03
2022-08-11T13:00:30.527Z,47.83
2022-08-11T13:03:16.494Z,48.26
2022-08-11T13:05:45.515Z,48.04
2022-08-11T13:08:15.430Z,48.30
2022-08-11T13:11:01.718Z,48.22
2022-08-11T13:13:54.739Z,48.19
2022-08-11T13:16:20.752Z,48.21
2022-08-11T13:18:48.955Z,48.17
2022-08-11T13:21:20.685Z,48.17
2022-08-11T13:23:59.423Z,48.37
2022-08-11T13:26:47.547Z,48.08
2022-08-11T13:29:22.752Z,48.14
2022-08-11T13:31:52.292Z,48.16
2022-08-11T13:34:20.737Z,48.14
2022-08-11T13:36:50.514Z,47.93
2022-08-11T13:39:18.651Z,48.20
2022-08-11T13:41:47.952Z,47.93
2022-08-11T13:44:23.217Z,48.29
2022-08-11T13:46:56.397Z,48.19
2022-08-11T13:49:24.661Z,48.52
2022-08-11T13:51:52.774Z,48.81
2022-08-11T13:54:22.413Z,49.04
2022-08-11T13:56:54.149Z,49.03
2022-08-11T13:59:28.184Z,49.17
2022-08-11T14:02:22.610Z,49.02
2022-08-11T14:04:54.465Z,49.14
2022-08-11T14:07:23.478Z,48.86
2022-08-11T14:09:56.857Z,49.41
2022-08-11T14:12:43.157Z,49.05
2022-08-11T14:15:20.090Z,48.87
2022-08-11T14:17:52.619Z,48.55
2022-08-11T14:20:38.368Z,48.23
2022-08-11T14:23:08.095Z,47.84
2022-08-11T14:26:00.156Z,47.66
2022-08-11T14:28:41.760Z,47.69
2022-08-11T14:31:12.074Z,47.84
2022-08-11T14:34:00.377Z,47.92
2022-08-11T14:36:35.117Z,47.52
2022-08-11T14:39:08.894Z,47.76
2022-08-11T14:42:10.862Z,47.55
2022-08-11T14:45:00.152Z,47.81
2022-08-11T14:47:28.460Z,47.65
2022-08-11T14:50:10.199Z,47.37
2022-08-11T14:52:41.041Z,46.99
2022-08-11T14:55:27.026Z,46.72
2022-08-11T14:57:57.124Z,46.49
2022-08-11T15:00:25.507Z,46.25
2022-08-11T15:03:11.241Z,46.05
2022-08-11T15:05:52.395Z,45.79
2022-08-11T15:08:42.622Z,45.86
2022-08-11T15:11:32.438Z,45.71
2022-08-11T15:14:00.753Z,45.99
2022-08-11T15:16:46.460Z,46.43
2022-08-11T15:19:15.122Z,45.75
2022-08-11T15:22:02.423Z,46.06
2022-08-11T15:24:30.889Z,45.82
2022-08-11T15:27:16.880Z,45.61
2022-08-11T15:30:02.221Z,45.59
2022-08-11T15:32:47.765Z,45.79
2022-08-11T15:35:38.787Z,46.02
2022-08-11T15:38:09.409Z,46.11
2022-08-11T15:40:56.572Z,46.10
2022-08-11T15:43:44.754Z,45.90
2022-08-11T15:46:14.674Z,45.80
2022-08-11T15:48:44.614Z,46.03
2022-08-11T15:51:14.311Z,45.74
2022-08-11T15:53:57.138Z,45.56
2022-08-11T15:56:25.966Z,45.46
2022-08-11T15:59:41.931Z,45.23
2022-08-11T16:02:26.154Z,44.75
2022-08-11T16:04:54.454Z,44.52
2022-08-11T16:07:27.002Z,44.75
2022-08-11T16:10:00.201Z,44.19
2022-08-11T16:12:30.416Z,44.21
2022-08-11T16:15:20.192Z,44.12
2022-08-11T16:17:51.371Z,43.95
2022-08-11T16:20:22.246Z,44.24
2022-08-11T16:22:57.211Z,44.12
2022-08-11T16:27:02.912Z,44.12
2022-08-11T16:28:23.830Z,43.67
2022-08-11T16:30:52.019Z,44.04
2022-08-11T16:33:50.707Z,43.65
2022-08-11T16:36:26.641Z,43.70
2022-08-11T16:38:55.072Z,43.91
2022-08-11T16:41:39.150Z,43.53
2022-08-11T16:44:32.719Z,43.56
2022-08-11T16:47:06.448Z,43.09
2022-08-11T16:49:36.155Z,43.27
2022-08-11T16:52:05.529Z,43.27
2022-08-11T16:54:34.179Z,43.18
2022-08-11T16:57:18.720Z,42.99
2022-08-11T16:59:48.415Z,43.03
2022-08-11T17:02:40.317Z,42.85
2022-08-11T17:05:28.494Z,42.65
2022-08-11T17:08:13.561Z,42.86
2022-08-11T17:11:04.135Z,42.85
2022-08-11T17:13:36.600Z,42.53
2022-08-11T17:16:09.321Z,42.70
2022-08-11T17:18:43.183Z,42.70
2022-08-11T17:21:13.892Z,42.63
2022-08-11T17:23:48.122Z,42.87
2022-08-11T17:26:21.410Z,42.82
2022-08-11T17:28:56.348Z,43.12
2022-08-11T17:31:42.330Z,42.96
2022-08-11T17:34:27.971Z,42.80
2022-08-11T17:36:56.271Z,42.78
2022-08-11T17:39:29.276Z,42.81
2022-08-11T17:42:16.638Z,43.06
2022-08-11T17:45:03.368Z,43.07
2022-08-11T17:47:49.053Z,42.84
2022-08-11T17:50:18.415Z,42.76
2022-08-11T17:53:04.351Z,43.22
2022-08-11T17:55:53.593Z,42.92
2022-08-11T17:58:39.427Z,43.04
2022-08-11T18:01:10.023Z,43.00
2022-08-11T18:03:40.027Z,43.13
2022-08-11T18:06:12.602Z,43.37
2022-08-11T18:09:02.491Z,43.23
2022-08-11T18:12:06.209Z,43.26
2022-08-11T18:14:55.133Z,43.58
2022-08-11T18:17:42.225Z,43.57
2022-08-11T18:20:28.514Z,43.44
2022-08-11T18:23:14.382Z,43.81
2022-08-11T18:26:02.818Z,43.58
2022-08-11T18:28:52.141Z,43.47
2022-08-11T18:31:37.624Z,43.80
2022-08-11T18:34:25.709Z,43.87
2022-08-11T18:37:20.188Z,44.01
2022-08-11T18:40:09.491Z,43.52
2022-08-11T18:43:03.158Z,44.17
2022-08-11T18:46:00.476Z,43.96
2022-08-11T18:48:54.010Z,44.03
2022-08-11T18:51:42.904Z,44.01
2022-08-11T18:54:29.319Z,44.05
2022-08-11T18:57:16.147Z,44.44
2022-08-11T19:00:02.276Z,44.47
2022-08-11T19:02:48.994Z,44.24
2022-08-11T19:06:08.327Z,44.26
2022-08-11T19:08:46.047Z,44.49
2022-08-11T19:11:31.793Z,44.17
2022-08-11T19:14:17.733Z,44.61
2022-08-11T19:17:03.546Z,44.28
2022-08-11T19:19:48.919Z,44.26
2022-08-11T19:22:34.419Z,44.34
2022-08-11T19:25:25.389Z,44.12
2022-08-11T19:28:12.034Z,44.12
2022-08-11T19:30:57.405Z,44.24
2022-08-11T19:34:02.469Z,44.25
2022-08-11T19:36:48.482Z,44.16
2022-08-11T19:39:34.040Z,44.40
2022-08-11T19:42:21.153Z,44.35
2022-08-11T19:45:06.658Z,44.81
2022-08-11T19:48:07.991Z,44.60
2022-08-11T19:50:57.794Z,44.70
2022-08-11T19:53:43.162Z,44.83
2022-08-11T19:56:28.754Z,44.91
2022-08-11T19:59:16.093Z,44.83
2022-08-11T20:02:14.318Z,45.09
2022-08-11T20:05:00.278Z,45.10
2022-08-11T20:07:46.205Z,44.99
2022-08-11T20:10:32.039Z,45.22
2022-08-11T20:13:21.617Z,45.28
2022-08-11T20:16:08.673Z,45.35
2022-08-11T20:18:54.086Z,45.53
2022-08-11T20:21:39.960Z,45.43
2022-08-11T20:24:25.869Z,45.46
2022-08-11T20:27:24.404Z,45.99
2022-08-11T20:30:10.961Z,46.20
2022-08-11T20:32:58.598Z,45.91
2022-08-11T20:35:44.027Z,46.06
2022-08-11T20:38:30.243Z,45.63
2022-08-11T20:41:16.460Z,45.95
2022-08-11T20:44:05.631Z,46.30
2022-08-11T20:46:52.531Z,46.01
2022-08-11T20:49:45.926Z,46.00
2022-08-11T20:52:39.923Z,46.15
2022-08-11T20:55:51.518Z,46.33
2022-08-11T20:59:01.025Z,46.27
2022-08-11T21:01:38.641Z,46.40
2022-08-11T21:04:26.518Z,46.46
2022-08-11T21:07:18.591Z,46.25
2022-08-11T21:10:22.877Z,46.44
2022-08-11T21:13:26.480Z,46.86
2022-08-11T21:16:26.082Z,46.39
2022-08-11T21:19:13.945Z,46.75
2022-08-11T21:21:59.491Z,46.72
2022-08-11T21:24:47.024Z,46.58
2022-08-11T21:27:35.363Z,46.64
2022-08-11T21:30:21.121Z,46.55
2022-08-11T21:33:06.559Z,46.69
2022-08-11T21:35:52.085Z,46.95
2022-08-11T21:38:37.527Z,46.58
2022-08-11T21:41:24.386Z,46.74
2022-08-11T21:44:10.469Z,46.67
2022-08-11T21:46:56.445Z,46.74
2022-08-11T21:49:41.767Z,46.96
2022-08-11T21:52:27.374Z,46.71
2022-08-11T21:55:12.841Z,46.72
2022-08-11T21:58:00.084Z,46.70
2022-08-11T22:00:45.647Z,46.67
2022-08-11T22:03:36.516Z,46.85
2022-08-11T22:06:35.427Z,46.51
2022-08-11T22:09:20.784Z,46.74
2022-08-11T22:12:34.110Z,47.01
2022-08-11T22:15:13.126Z,47.08
2022-08-11T22:17:58.518Z,47.00
2022-08-11T22:20:43.933Z,47.02
2022-08-11T22:23:35.257Z,46.81
2022-08-11T22:26:22.653Z,47.12
2022-08-11T22:29:08.418Z,47.08
2022-08-11T22:31:55.918Z,47.14
2022-08-11T22:34:53.076Z,47.12
2022-08-11T22:37:39.766Z,46.97
2022-08-11T22:40:27.280Z,47.11
2022-08-11T22:43:12.652Z,47.25
2022-08-11T22:45:57.996Z,47.25
2022-08-11T22:48:45.222Z,47.28
2022-08-11T22:51:30.698Z,47.15
2022-08-11T22:54:16.009Z,47.23
2022-08-11T22:57:01.398Z,47.15
2022-08-11T22:59:46.558Z,47.57
2022-08-11T23:02:32.085Z,47.42
2022-08-11T23:05:18.955Z,46.90
2022-08-11T23:08:04.302Z,47.16
2022-08-11T23:10:50.175Z,47.39
2022-08-11T23:13:35.713Z,47.13
2022-08-11T23:16:21.694Z,47.22
2022-08-11T23:19:07.581Z,47.59
2022-08-11T23:21:54.850Z,47.46
2022-08-11T23:24:40.717Z,47.60
2022-08-11T23:27:27.163Z,47.47
2022-08-11T23:30:13.470Z,47.55
2022-08-11T23:32:59.395Z,47.41
2022-08-11T23:35:54.954Z,47.24
2022-08-11T23:38:43.700Z,47.28
2022-08-11T23:41:29.071Z,47.51
2022-08-11T23:44:14.830Z,47.49
2022-08-11T23:47:00.801Z,47.47
2022-08-11T23:49:46.242Z,47.49
2022-08-11T23:52:31.610Z,47.62
2022-08-11T23:55:18.600Z,47.28
2022-08-11T23:58:03.923Z,47.42
